AYPY/POM METAR and TAF weather

Enter ICAO airport designator
Station Type Date Time Source
AYPY METAR 2019/08/19 01:00 UTC NOAA

AYPY 190100Z 15520KT 9999 HZ FEW200 29/22 Q1013=


Station Type Date Time Source
AYPY Decoded METAR 2019/08/19 01:00 UTC NOAA

Station name not available
Aug 18, 2019 - 09:00 PM EDT / 2019.08.19 0100 UTC
Wind: from the SSE (155 degrees) at 23 MPH (20 KT):0
Visibility: greater than 7 mile(s):0
Sky conditions: mostly clear
Weather: haze
Temperature: 84 F (29 C)
Dew Point: 71 F (22 C)
Relative Humidity: 65%
Pressure (altimeter): 29.91 in. Hg (1013 hPa)
ob: AYPY 190100Z 15520KT 9999 HZ FEW200 29/22 Q1013=
cycle: 1

Station Type Date Time Source
AYPY TAF 2019/08/18 18:19 UTC NOAA

TAF AYPY 181544Z 1818/1918 15015KT 9999 SCT018 BKN120

Example: see airport list